createdAt,value
2017-07-31T00:00:22.252Z,24.32
2017-07-31T00:01:31.233Z,24.28
2017-07-31T00:02:40.685Z,24.3
2017-07-31T00:03:49.801Z,24.28
2017-07-31T00:04:58.839Z,24.34
2017-07-31T00:06:07.889Z,24.31
2017-07-31T00:07:16.913Z,24.3
2017-07-31T00:08:26.034Z,24.3
2017-07-31T00:09:35.243Z,24.25
2017-07-31T00:10:44.340Z,24.28
2017-07-31T00:11:53.676Z,24.28
2017-07-31T00:13:02.909Z,24.28
2017-07-31T00:14:12.009Z,24.25
2017-07-31T00:15:21.223Z,24.21
2017-07-31T00:16:30.307Z,24.31
2017-07-31T00:17:39.368Z,24.21
2017-07-31T00:18:48.735Z,24.25
2017-07-31T00:19:57.982Z,24.18
2017-07-31T00:21:07.273Z,24.2
2017-07-31T00:22:16.272Z,24.15
2017-07-31T00:23:25.431Z,24.24
2017-07-31T00:24:34.520Z,24.21
2017-07-31T00:25:43.643Z,24.1
2017-07-31T00:26:52.904Z,24.13
2017-07-31T00:28:02.514Z,24.16
2017-07-31T00:29:11.656Z,24.21
2017-07-31T00:30:20.789Z,24.12
2017-07-31T00:31:29.747Z,24.12
2017-07-31T00:32:38.705Z,24.16
2017-07-31T00:33:47.990Z,24.09
2017-07-31T00:34:56.952Z,24.12
2017-07-31T00:36:06.237Z,24.06
2017-07-31T00:37:15.528Z,24.06
2017-07-31T00:38:24.817Z,23.97
2017-07-31T00:39:33.769Z,23.98
2017-07-31T00:40:42.741Z,23.98
2017-07-31T00:41:51.707Z,24.02
2017-07-31T00:43:00.659Z,24.03
2017-07-31T00:44:09.629Z,24.02
2017-07-31T00:45:18.586Z,24.03
2017-07-31T00:46:27.545Z,24
2017-07-31T00:47:36.840Z,23.98
2017-07-31T00:48:45.805Z,23.93
2017-07-31T00:49:54.767Z,23.93
2017-07-31T00:51:03.750Z,23.88
2017-07-31T00:52:12.701Z,23.9
2017-07-31T00:53:21.661Z,23.85
2017-07-31T00:54:30.614Z,23.91
2017-07-31T00:55:39.574Z,23.84
2017-07-31T00:56:48.536Z,23.85
2017-07-31T00:57:57.492Z,23.84
2017-07-31T00:59:06.453Z,23.7
2017-07-31T01:00:15.418Z,23.68
2017-07-31T01:01:24.380Z,23.79
2017-07-31T01:02:33.338Z,23.83
2017-07-31T01:03:42.296Z,23.79
2017-07-31T01:04:51.250Z,23.79
2017-07-31T01:06:00.216Z,23.8
2017-07-31T01:07:09.258Z,23.68
2017-07-31T01:08:18.542Z,23.68
2017-07-31T01:09:27.512Z,23.7
2017-07-31T01:10:36.473Z,23.68
2017-07-31T01:11:45.436Z,23.66
2017-07-31T01:12:54.730Z,23.58
2017-07-31T01:14:03.697Z,23.58
2017-07-31T01:15:12.658Z,23.55
2017-07-31T01:16:21.622Z,23.6
2017-07-31T01:17:30.588Z,23.66
2017-07-31T01:18:39.555Z,23.68
2017-07-31T01:19:48.537Z,23.61
2017-07-31T01:20:57.501Z,23.61
2017-07-31T01:22:06.459Z,23.58
2017-07-31T01:23:15.411Z,23.51
2017-07-31T01:24:24.688Z,23.6
2017-07-31T01:25:33.647Z,23.48
2017-07-31T01:26:42.613Z,23.53
2017-07-31T01:27:51.567Z,23.51
2017-07-31T01:29:00.519Z,23.58
2017-07-31T01:30:09.480Z,23.54
2017-07-31T01:31:18.442Z,23.43
2017-07-31T01:32:27.401Z,23.43
2017-07-31T01:33:36.353Z,23.42
2017-07-31T01:34:45.308Z,23.42
2017-07-31T01:35:54.273Z,23.4
2017-07-31T01:37:03.230Z,23.42
2017-07-31T01:38:12.198Z,23.42
2017-07-31T01:39:21.167Z,23.43
2017-07-31T01:40:30.133Z,23.47
2017-07-31T01:41:39.093Z,23.39
2017-07-31T01:42:48.051Z,23.5
2017-07-31T01:43:57.000Z,23.38
2017-07-31T01:45:05.952Z,23.35
2017-07-31T01:46:14.919Z,23.4
2017-07-31T01:47:23.876Z,23.4
2017-07-31T01:48:32.833Z,23.4
2017-07-31T01:49:41.804Z,23.39
2017-07-31T01:50:50.767Z,23.35
2017-07-31T01:51:59.732Z,23.39
2017-07-31T01:53:08.693Z,23.35
2017-07-31T01:54:17.657Z,23.35
2017-07-31T01:55:26.634Z,23.42
2017-07-31T01:56:35.596Z,23.35
2017-07-31T01:57:44.883Z,23.33
2017-07-31T01:58:53.836Z,23.4
2017-07-31T02:00:03.129Z,23.33
2017-07-31T02:01:12.088Z,23.33
2017-07-31T02:02:21.057Z,23.38
2017-07-31T02:03:30.023Z,23.38
2017-07-31T02:04:38.977Z,23.27
2017-07-31T02:05:47.934Z,23.33
2017-07-31T02:06:56.902Z,23.27
2017-07-31T02:08:05.865Z,23.23
2017-07-31T02:09:14.820Z,23.25
2017-07-31T02:10:23.791Z,23.22
2017-07-31T02:11:32.758Z,23.25
2017-07-31T02:12:41.720Z,23.19
2017-07-31T02:13:50.999Z,23.16
2017-07-31T02:14:59.953Z,23.17
2017-07-31T02:16:09.240Z,23.16
2017-07-31T02:17:18.198Z,23.15
2017-07-31T02:18:27.157Z,23.17
2017-07-31T02:19:36.117Z,23.12
2017-07-31T02:20:45.076Z,23.12
2017-07-31T02:21:54.031Z,23.17
2017-07-31T02:23:02.995Z,23.13
2017-07-31T02:24:11.956Z,23.13
2017-07-31T02:25:20.915Z,23.15
2017-07-31T02:26:29.874Z,23.19
2017-07-31T02:27:38.836Z,23.13
2017-07-31T02:28:47.807Z,23.17
2017-07-31T02:29:57.102Z,23.15
2017-07-31T02:31:06.078Z,23.16
2017-07-31T02:32:15.041Z,23.15
2017-07-31T02:33:24.000Z,23.1
2017-07-31T02:34:33.309Z,23.05
2017-07-31T02:35:42.264Z,23.2
2017-07-31T02:36:51.229Z,23.13
2017-07-31T02:38:00.191Z,23.16
2017-07-31T02:39:09.159Z,23.16
2017-07-31T02:40:18.147Z,23.15
2017-07-31T02:41:27.101Z,23.15
2017-07-31T02:42:36.065Z,23.09
2017-07-31T02:43:45.036Z,23.2
2017-07-31T02:44:54.022Z,23.13
2017-07-31T02:46:02.982Z,23.13
2017-07-31T02:47:11.945Z,23.07
2017-07-31T02:48:20.916Z,23.15
2017-07-31T02:49:29.885Z,23.15
2017-07-31T02:50:39.167Z,23.1
2017-07-31T02:51:48.128Z,23.12
2017-07-31T02:52:57.418Z,23.13
2017-07-31T02:54:06.373Z,23.16
2017-07-31T02:55:15.333Z,23.12
2017-07-31T02:56:24.290Z,23.15
2017-07-31T02:57:33.250Z,23.12
2017-07-31T02:58:42.211Z,23.12
2017-07-31T02:59:51.172Z,23.12
2017-07-31T03:01:00.142Z,23.13
2017-07-31T03:02:09.099Z,23.15
2017-07-31T03:03:18.057Z,23.12
2017-07-31T03:04:27.017Z,23.07
2017-07-31T03:05:35.973Z,23.1
2017-07-31T03:06:44.926Z,23.16
2017-07-31T03:07:53.880Z,23.07
2017-07-31T03:09:02.848Z,23.1
2017-07-31T03:10:11.807Z,23.13
2017-07-31T03:11:20.769Z,23.15
2017-07-31T03:12:30.372Z,23.07
2017-07-31T03:13:39.330Z,23.1
2017-07-31T03:14:48.290Z,23.12
2017-07-31T03:15:57.243Z,23.13
2017-07-31T03:17:06.212Z,23.04
2017-07-31T03:18:15.177Z,23.12
2017-07-31T03:19:24.143Z,23.07
2017-07-31T03:20:33.101Z,23.09
2017-07-31T03:21:42.067Z,23.02
2017-07-31T03:22:51.337Z,22.97
2017-07-31T03:24:00.591Z,23.07
2017-07-31T03:25:09.886Z,23.04
2017-07-31T03:26:18.854Z,23.04
2017-07-31T03:27:27.806Z,23.01
2017-07-31T03:28:36.757Z,23.09
2017-07-31T03:29:45.718Z,22.91
2017-07-31T03:30:55.014Z,23.09
2017-07-31T03:32:03.977Z,22.97
2017-07-31T03:33:13.919Z,23.07
2017-07-31T03:34:22.879Z,22.95
2017-07-31T03:35:31.844Z,23.01
2017-07-31T03:36:40.808Z,22.95
2017-07-31T03:37:49.763Z,22.95
2017-07-31T03:38:58.727Z,23
2017-07-31T03:40:07.698Z,23
2017-07-31T03:41:16.676Z,22.95
2017-07-31T03:42:25.642Z,22.94
2017-07-31T03:43:34.611Z,22.9
2017-07-31T03:44:43.580Z,22.97
2017-07-31T03:45:53.181Z,22.94
2017-07-31T03:47:02.136Z,22.91
2017-07-31T03:48:11.091Z,22.95
2017-07-31T03:49:20.048Z,23
2017-07-31T03:50:29.009Z,22.94
2017-07-31T03:51:37.966Z,22.94
2017-07-31T03:52:46.952Z,22.97
2017-07-31T03:53:55.910Z,22.95
2017-07-31T03:55:04.868Z,22.97
2017-07-31T03:56:13.828Z,23.01
2017-07-31T03:57:22.793Z,22.97
2017-07-31T03:58:32.080Z,22.95
2017-07-31T03:59:41.050Z,22.97
2017-07-31T04:00:50.019Z,22.94
2017-07-31T04:01:58.983Z,22.92
2017-07-31T04:03:07.943Z,22.9
2017-07-31T04:04:17.237Z,22.9
2017-07-31T04:05:26.527Z,22.94
2017-07-31T04:06:35.489Z,22.91
2017-07-31T04:07:44.444Z,22.97
2017-07-31T04:08:53.391Z,22.97
2017-07-31T04:10:02.353Z,22.97
2017-07-31T04:11:11.647Z,22.88
2017-07-31T04:12:20.614Z,22.97
2017-07-31T04:13:29.569Z,22.95
2017-07-31T04:14:38.522Z,22.95
2017-07-31T04:15:47.475Z,22.94
2017-07-31T04:16:56.452Z,23.01
2017-07-31T04:18:05.416Z,22.98
2017-07-31T04:19:14.369Z,22.94
2017-07-31T04:20:23.334Z,22.91
2017-07-31T04:21:32.299Z,22.94
2017-07-31T04:22:41.258Z,22.95
2017-07-31T04:23:50.218Z,22.97
2017-07-31T04:24:59.511Z,22.91
2017-07-31T04:26:08.501Z,22.95
2017-07-31T04:27:17.790Z,22.98
2017-07-31T04:28:26.758Z,22.95
2017-07-31T04:29:35.718Z,22.98
2017-07-31T04:30:44.684Z,23
2017-07-31T04:31:53.639Z,22.98
2017-07-31T04:33:02.594Z,22.98
2017-07-31T04:34:11.559Z,22.98
2017-07-31T04:35:20.520Z,22.95
2017-07-31T04:36:29.801Z,22.95
2017-07-31T04:37:38.782Z,22.95
2017-07-31T04:38:48.064Z,22.98
2017-07-31T04:39:57.023Z,23
2017-07-31T04:41:06.325Z,22.91
2017-07-31T04:42:15.290Z,22.91
2017-07-31T04:43:24.567Z,23.05
2017-07-31T04:44:33.527Z,23.02
2017-07-31T04:45:42.504Z,23.1
2017-07-31T04:46:51.458Z,23.07
2017-07-31T04:48:00.410Z,23
2017-07-31T04:49:09.371Z,23.02
2017-07-31T04:50:18.334Z,23.02
2017-07-31T04:51:27.296Z,23.15
2017-07-31T04:52:36.585Z,23.01
2017-07-31T04:53:45.544Z,23.02
2017-07-31T04:54:54.507Z,23.07
2017-07-31T04:56:03.793Z,23.02
2017-07-31T04:57:12.756Z,23.12
2017-07-31T04:58:21.713Z,23.09
2017-07-31T04:59:30.673Z,23.1
2017-07-31T05:00:39.943Z,23.16
2017-07-31T05:01:48.919Z,23.09
2017-07-31T05:02:57.878Z,23.1
2017-07-31T05:04:06.835Z,23.19
2017-07-31T05:05:15.805Z,23.16
2017-07-31T05:06:24.764Z,23.16
2017-07-31T05:07:33.716Z,23.2
2017-07-31T05:08:42.671Z,23.13
2017-07-31T05:09:51.627Z,23.17
2017-07-31T05:11:00.585Z,23.19
2017-07-31T05:12:09.558Z,23.15
2017-07-31T05:13:18.514Z,23.17
2017-07-31T05:14:27.478Z,23.19
2017-07-31T05:15:36.458Z,23.17
2017-07-31T05:16:45.737Z,23.13
2017-07-31T05:17:54.704Z,23.16
2017-07-31T05:19:03.664Z,23.19
2017-07-31T05:20:12.623Z,23.16
2017-07-31T05:21:21.592Z,23.1
2017-07-31T05:22:30.549Z,23.19
2017-07-31T05:23:39.504Z,23.16
2017-07-31T05:24:48.462Z,23.12
2017-07-31T05:25:57.427Z,23.15
2017-07-31T05:27:06.389Z,23.07
2017-07-31T05:28:15.344Z,23.13
2017-07-31T05:29:24.298Z,23.16
2017-07-31T05:30:33.260Z,23.13
2017-07-31T05:31:42.216Z,23.16
2017-07-31T05:32:51.176Z,23.12
2017-07-31T05:34:00.173Z,23.04
2017-07-31T05:35:09.138Z,23.07
2017-07-31T05:36:18.101Z,23.13
2017-07-31T05:37:27.062Z,23.12
2017-07-31T05:38:36.019Z,23.1
2017-07-31T05:39:44.973Z,23.12
2017-07-31T05:40:53.934Z,23.1
2017-07-31T05:42:02.884Z,23.09
2017-07-31T05:43:11.842Z,23.13
2017-07-31T05:44:20.799Z,23.12
2017-07-31T05:45:29.764Z,23.12
2017-07-31T05:46:38.734Z,23.1
2017-07-31T05:47:48.014Z,23.1
2017-07-31T05:48:56.977Z,23.16
2017-07-31T05:50:06.279Z,23.16
2017-07-31T05:51:15.570Z,23.16
2017-07-31T05:52:24.525Z,23.19
2017-07-31T05:53:33.808Z,23.25
2017-07-31T05:54:43.421Z,23.19
2017-07-31T05:55:52.381Z,23.23
2017-07-31T05:57:01.338Z,23.22
2017-07-31T05:58:10.298Z,23.23
2017-07-31T05:59:19.264Z,23.36
2017-07-31T06:00:28.273Z,23.31
2017-07-31T06:01:37.549Z,23.31
2017-07-31T06:02:46.510Z,23.33
2017-07-31T06:03:55.472Z,23.28
2017-07-31T06:05:04.436Z,23.31
2017-07-31T06:06:13.414Z,23.38
2017-07-31T06:07:22.375Z,23.38
2017-07-31T06:08:31.325Z,23.32
2017-07-31T06:09:40.618Z,23.32
2017-07-31T06:10:49.589Z,23.33
2017-07-31T06:11:58.548Z,23.2
2017-07-31T06:13:07.512Z,23.27
2017-07-31T06:14:16.479Z,23.38
2017-07-31T06:15:25.430Z,23.36
2017-07-31T06:16:34.396Z,23.39
2017-07-31T06:17:43.353Z,23.42
2017-07-31T06:18:52.631Z,23.5
2017-07-31T06:20:01.922Z,23.42
2017-07-31T06:21:10.999Z,23.54
2017-07-31T06:22:19.969Z,23.42
2017-07-31T06:23:28.929Z,23.5
2017-07-31T06:24:37.896Z,23.51
2017-07-31T06:25:46.858Z,23.55
2017-07-31T06:26:55.819Z,23.55
2017-07-31T06:28:04.786Z,23.47
2017-07-31T06:29:13.748Z,23.5
2017-07-31T06:30:22.707Z,23.57
2017-07-31T06:31:31.666Z,23.57
2017-07-31T06:32:40.951Z,23.61
2017-07-31T06:33:49.912Z,23.68
2017-07-31T06:34:58.901Z,23.66
2017-07-31T06:36:08.197Z,23.63
2017-07-31T06:37:17.165Z,23.65
2017-07-31T06:38:26.448Z,23.6
2017-07-31T06:39:35.412Z,23.66
2017-07-31T06:40:44.366Z,23.72
2017-07-31T06:41:53.330Z,23.68
2017-07-31T06:43:02.294Z,23.76
2017-07-31T06:44:11.260Z,23.87
2017-07-31T06:45:20.777Z,23.85
2017-07-31T06:46:30.539Z,23.79
2017-07-31T06:47:39.636Z,23.85
2017-07-31T06:48:48.665Z,23.91
2017-07-31T06:49:57.814Z,23.94
2017-07-31T06:51:07.001Z,23.88
2017-07-31T06:52:16.047Z,23.94
2017-07-31T06:53:25.374Z,23.85
2017-07-31T06:54:34.461Z,23.94
2017-07-31T06:55:43.496Z,23.9
2017-07-31T06:56:52.502Z,23.9
2017-07-31T06:58:01.524Z,23.94
2017-07-31T06:59:10.480Z,23.97
2017-07-31T07:00:19.770Z,23.98
2017-07-31T07:01:28.731Z,24.03
2017-07-31T07:02:37.692Z,24
2017-07-31T07:03:46.650Z,24.03
2017-07-31T07:04:55.619Z,24.03
2017-07-31T07:06:04.705Z,24.06
2017-07-31T07:07:14.175Z,24.12
2017-07-31T07:08:23.252Z,24.12
2017-07-31T07:09:32.220Z,24.13
2017-07-31T07:10:41.505Z,24.12
2017-07-31T07:11:50.466Z,24.18
2017-07-31T07:12:59.429Z,24.25
2017-07-31T07:14:08.387Z,24.22
2017-07-31T07:15:17.364Z,24.22
2017-07-31T07:16:26.322Z,24.3
2017-07-31T07:17:35.604Z,24.25
2017-07-31T07:18:44.562Z,24.31
2017-07-31T07:19:53.519Z,24.31
2017-07-31T07:21:02.811Z,24.32
2017-07-31T07:22:12.096Z,24.32
2017-07-31T07:23:21.062Z,24.43
2017-07-31T07:24:30.347Z,24.4
2017-07-31T07:25:39.306Z,24.37
2017-07-31T07:26:48.258Z,24.45
2017-07-31T07:27:57.215Z,24.4
2017-07-31T07:29:06.346Z,24.37
2017-07-31T07:30:15.329Z,24.55
2017-07-31T07:31:24.615Z,24.52
2017-07-31T07:32:33.947Z,24.65
2017-07-31T07:33:43.130Z,24.69
2017-07-31T07:34:52.097Z,24.76
2017-07-31T07:36:01.076Z,24.76
2017-07-31T07:37:10.118Z,24.71
2017-07-31T07:38:19.085Z,24.78
2017-07-31T07:39:28.052Z,24.81
2017-07-31T07:40:37.017Z,24.78
2017-07-31T07:41:46.017Z,24.8
2017-07-31T07:42:55.963Z,24.87
2017-07-31T07:44:04.929Z,24.8
2017-07-31T07:45:13.891Z,24.87
2017-07-31T07:46:22.867Z,24.87
2017-07-31T07:47:31.825Z,24.88
2017-07-31T07:48:40.830Z,24.91
2017-07-31T07:49:49.791Z,24.91
2017-07-31T07:50:59.017Z,24.9
2017-07-31T07:52:07.977Z,24.87
2017-07-31T07:53:16.945Z,24.95
2017-07-31T07:54:25.914Z,25
2017-07-31T07:55:34.878Z,24.98
2017-07-31T07:56:43.843Z,25
2017-07-31T07:57:52.812Z,25.02
2017-07-31T07:59:01.791Z,24.99
2017-07-31T08:00:11.400Z,25.02
2017-07-31T08:01:20.403Z,25.03
2017-07-31T08:02:29.362Z,25.14
2017-07-31T08:03:38.323Z,25.02
2017-07-31T08:04:47.292Z,25.15
2017-07-31T08:05:56.272Z,25.08
2017-07-31T08:07:05.242Z,25.08
2017-07-31T08:08:14.202Z,25.18
2017-07-31T08:09:23.159Z,25.13
2017-07-31T08:10:32.125Z,25.18
2017-07-31T08:11:41.087Z,25.06
2017-07-31T08:12:50.042Z,25.14
2017-07-31T08:13:59.324Z,25.15
2017-07-31T08:15:08.284Z,25.2
2017-07-31T08:16:17.324Z,25.24
2017-07-31T08:17:26.718Z,25.21
2017-07-31T08:18:35.888Z,25.15
2017-07-31T08:19:44.946Z,25.23
2017-07-31T08:20:54.036Z,25.3
2017-07-31T08:22:03.136Z,25.24
2017-07-31T08:23:12.292Z,25.32
2017-07-31T08:24:21.546Z,25.23
2017-07-31T08:25:30.660Z,25.28
2017-07-31T08:26:39.680Z,25.28
2017-07-31T08:27:48.840Z,25.38
2017-07-31T08:28:58.123Z,25.39
2017-07-31T08:30:07.616Z,25.3
2017-07-31T08:31:16.570Z,25.35
2017-07-31T08:32:25.522Z,25.43
2017-07-31T08:33:34.485Z,25.45
2017-07-31T08:34:43.456Z,25.47
2017-07-31T08:35:52.434Z,25.54
2017-07-31T08:37:01.398Z,25.5
2017-07-31T08:38:10.359Z,25.58
2017-07-31T08:39:19.312Z,25.55
2017-07-31T08:40:28.277Z,25.67
2017-07-31T08:41:37.248Z,25.69
2017-07-31T08:42:46.216Z,25.7
2017-07-31T08:43:55.179Z,25.72
2017-07-31T08:45:04.484Z,25.72
2017-07-31T08:46:13.447Z,25.7
2017-07-31T08:47:22.424Z,25.8
2017-07-31T08:48:31.712Z,25.76
2017-07-31T08:49:40.921Z,25.85
2017-07-31T08:50:50.205Z,25.87
2017-07-31T08:51:59.245Z,25.88
2017-07-31T08:53:08.396Z,25.97
2017-07-31T08:54:17.501Z,25.9
2017-07-31T08:55:26.538Z,25.95
2017-07-31T08:56:35.506Z,25.92
2017-07-31T08:57:44.467Z,25.98
2017-07-31T08:58:53.435Z,26.01
2017-07-31T09:00:02.398Z,26.01
2017-07-31T09:01:11.452Z,25.99
2017-07-31T09:02:20.412Z,26.07
2017-07-31T09:03:29.702Z,26.05
2017-07-31T09:04:38.667Z,26.07
2017-07-31T09:05:47.634Z,26.1
2017-07-31T09:06:56.604Z,26.17
2017-07-31T09:08:05.573Z,26.18
2017-07-31T09:09:14.545Z,26.13
2017-07-31T09:10:23.507Z,26.13
2017-07-31T09:11:32.470Z,26.18
2017-07-31T09:12:41.429Z,26.13
2017-07-31T09:13:50.395Z,26.07
2017-07-31T09:14:59.356Z,26.15
2017-07-31T09:16:08.326Z,26.13
2017-07-31T09:17:17.606Z,26.13
2017-07-31T09:18:26.576Z,26.05
2017-07-31T09:19:35.536Z,26.17
2017-07-31T09:20:44.492Z,26.18
2017-07-31T09:21:54.101Z,26.17
2017-07-31T09:23:03.066Z,26.21
2017-07-31T09:24:12.362Z,26.25
2017-07-31T09:25:21.321Z,26.2
2017-07-31T09:26:30.281Z,26.2
2017-07-31T09:27:39.242Z,26.21
2017-07-31T09:28:48.205Z,26.25
2017-07-31T09:29:57.162Z,26.2
2017-07-31T09:31:06.126Z,26.17
2017-07-31T09:32:15.090Z,26.17
2017-07-31T09:33:24.364Z,26.18
2017-07-31T09:34:33.328Z,26.26
2017-07-31T09:35:42.291Z,26.15
2017-07-31T09:36:51.241Z,26.21
2017-07-31T09:38:00.201Z,26.35
2017-07-31T09:39:09.183Z,26.25
2017-07-31T09:40:18.145Z,26.26
2017-07-31T09:41:27.105Z,26.26
2017-07-31T09:42:36.387Z,26.28
2017-07-31T09:43:45.353Z,26.25
2017-07-31T09:44:54.313Z,26.25
2017-07-31T09:46:03.300Z,26.26
2017-07-31T09:47:12.259Z,26.39
2017-07-31T09:48:21.223Z,26.33
2017-07-31T09:49:30.195Z,26.37
2017-07-31T09:50:39.148Z,26.37
2017-07-31T09:51:48.095Z,26.5
2017-07-31T09:52:57.054Z,26.4
2017-07-31T09:54:06.011Z,26.33
2017-07-31T09:55:15.306Z,26.45
2017-07-31T09:56:24.596Z,26.45
2017-07-31T09:57:33.562Z,26.45
2017-07-31T09:58:42.532Z,26.44
2017-07-31T09:59:51.498Z,26.44
2017-07-31T10:01:00.782Z,26.48
2017-07-31T10:02:09.754Z,26.55
2017-07-31T10:03:18.709Z,26.44
2017-07-31T10:04:27.666Z,26.57
2017-07-31T10:05:36.636Z,26.52
2017-07-31T10:06:45.609Z,26.57
2017-07-31T10:07:54.575Z,26.55
2017-07-31T10:09:03.546Z,26.58
2017-07-31T10:10:12.850Z,26.58
2017-07-31T10:11:21.822Z,26.7
2017-07-31T10:12:30.790Z,26.65
2017-07-31T10:13:39.745Z,26.72
2017-07-31T10:14:48.713Z,26.67
2017-07-31T10:15:57.678Z,26.77
2017-07-31T10:17:07.069Z,26.72
2017-07-31T10:18:16.915Z,26.7
2017-07-31T10:19:25.871Z,26.73
2017-07-31T10:20:34.837Z,26.76
2017-07-31T10:21:44.453Z,26.75
2017-07-31T10:22:53.425Z,26.76
2017-07-31T10:24:02.717Z,26.72
2017-07-31T10:25:11.696Z,26.75
2017-07-31T10:26:20.661Z,26.72
2017-07-31T10:27:29.621Z,26.77
2017-07-31T10:28:38.597Z,26.73
2017-07-31T10:29:47.565Z,26.73
2017-07-31T10:30:56.527Z,26.85
2017-07-31T10:32:06.057Z,26.8
2017-07-31T10:33:15.042Z,26.77
2017-07-31T10:34:24.017Z,26.8
2017-07-31T10:35:33.004Z,26.8
2017-07-31T10:36:41.992Z,26.94
2017-07-31T10:37:50.991Z,26.94
2017-07-31T10:39:00.012Z,26.91
2017-07-31T10:40:08.991Z,26.94
2017-07-31T10:41:17.984Z,26.97
2017-07-31T10:42:26.968Z,26.88
2017-07-31T10:43:35.955Z,26.94
2017-07-31T10:44:44.934Z,26.95
2017-07-31T10:45:53.923Z,26.97
2017-07-31T10:47:02.906Z,27.03
2017-07-31T10:48:11.891Z,27.06
2017-07-31T10:49:20.885Z,27.09
2017-07-31T10:50:29.871Z,27.04
2017-07-31T10:51:38.857Z,27.07
2017-07-31T10:52:47.842Z,27.07
2017-07-31T10:53:56.839Z,27.07
2017-07-31T10:55:05.833Z,27.09
2017-07-31T10:56:14.838Z,27.12
2017-07-31T10:57:23.830Z,27.03
2017-07-31T10:58:32.814Z,27.04
2017-07-31T10:59:42.125Z,27.13
2017-07-31T11:00:57.496Z,27.03
2017-07-31T11:02:19.317Z,27.13
2017-07-31T11:03:38.902Z,27.04
2017-07-31T11:04:53.014Z,27.09
2017-07-31T11:06:02.001Z,26.91
2017-07-31T11:07:11.001Z,26.88
2017-07-31T11:08:19.995Z,26.91
2017-07-31T11:09:28.986Z,26.92
2017-07-31T11:10:37.972Z,26.89
2017-07-31T11:11:46.957Z,26.89
2017-07-31T11:12:55.960Z,26.87
2017-07-31T11:14:04.950Z,26.87
2017-07-31T11:15:13.944Z,26.89
2017-07-31T11:16:22.935Z,27.02
2017-07-31T11:17:31.925Z,27
2017-07-31T11:18:41.233Z,27.07
2017-07-31T11:19:50.229Z,27.03
2017-07-31T11:20:59.218Z,27.14
2017-07-31T11:22:08.527Z,27.19
2017-07-31T11:23:17.518Z,27.19
2017-07-31T11:24:26.499Z,27.14
2017-07-31T11:25:35.489Z,27.29
2017-07-31T11:26:44.482Z,27.28
2017-07-31T11:27:53.470Z,27.27
2017-07-31T11:29:02.449Z,27.32
2017-07-31T11:30:11.479Z,27.31
2017-07-31T11:31:20.457Z,27.44
2017-07-31T11:32:29.494Z,27.31
2017-07-31T11:33:39.117Z,27.4
2017-07-31T11:34:48.094Z,27.43
2017-07-31T11:35:57.058Z,27.44
2017-07-31T11:37:06.019Z,27.46
2017-07-31T11:38:14.986Z,27.44
2017-07-31T11:39:23.958Z,27.51
2017-07-31T11:40:32.955Z,27.5
2017-07-31T11:41:42.255Z,27.62
2017-07-31T11:42:51.216Z,27.57
2017-07-31T11:44:00.190Z,27.5
2017-07-31T11:45:09.150Z,27.54
2017-07-31T11:46:18.121Z,27.55
2017-07-31T11:47:27.081Z,27.57
2017-07-31T11:48:36.047Z,27.49
2017-07-31T11:49:45.012Z,27.59
2017-07-31T11:50:53.981Z,27.54
2017-07-31T11:52:02.940Z,27.51
2017-07-31T11:53:11.910Z,27.57
2017-07-31T11:54:20.886Z,27.59
2017-07-31T11:55:29.878Z,27.51
2017-07-31T11:56:38.841Z,27.63
2017-07-31T11:57:47.805Z,27.63
2017-07-31T11:58:57.657Z,27.57
2017-07-31T12:00:07.515Z,27.62
2017-07-31T12:01:16.479Z,27.77
2017-07-31T12:02:25.443Z,27.74
2017-07-31T12:03:34.407Z,27.77
2017-07-31T12:04:43.361Z,27.66
2017-07-31T12:05:52.337Z,27.69
2017-07-31T12:07:01.299Z,27.69
2017-07-31T12:08:10.254Z,27.72
2017-07-31T12:09:19.218Z,27.77
2017-07-31T12:10:28.177Z,27.77
2017-07-31T12:11:37.142Z,27.79
2017-07-31T12:12:46.102Z,27.79
2017-07-31T12:13:55.139Z,27.81
2017-07-31T12:15:04.106Z,27.82
2017-07-31T12:16:13.381Z,27.82
2017-07-31T12:17:22.341Z,27.85
2017-07-31T12:18:31.298Z,27.85
2017-07-31T12:19:40.262Z,27.82
2017-07-31T12:20:49.226Z,27.82
2017-07-31T12:21:58.193Z,27.82
2017-07-31T12:23:07.476Z,27.79
2017-07-31T12:24:16.761Z,27.79
2017-07-31T12:25:26.062Z,27.9
2017-07-31T12:26:35.047Z,27.85
2017-07-31T12:27:44.011Z,27.9
2017-07-31T12:28:52.980Z,27.81
2017-07-31T12:30:01.954Z,27.79
2017-07-31T12:31:11.252Z,27.81
2017-07-31T12:32:20.539Z,27.81
2017-07-31T12:33:29.533Z,27.82
2017-07-31T12:34:38.499Z,27.77
2017-07-31T12:35:47.465Z,27.9
2017-07-31T12:36:56.426Z,27.81
2017-07-31T12:38:05.399Z,27.82
2017-07-31T12:39:14.370Z,27.81
2017-07-31T12:40:23.332Z,27.75
2017-07-31T12:41:32.628Z,27.82
2017-07-31T12:42:41.589Z,27.81
2017-07-31T12:43:50.554Z,27.84
2017-07-31T12:44:59.523Z,27.82
2017-07-31T12:46:08.492Z,27.72
2017-07-31T12:47:17.774Z,27.74
2017-07-31T12:48:26.735Z,27.72
2017-07-31T12:49:35.699Z,27.67
2017-07-31T12:50:44.666Z,27.6
2017-07-31T12:51:53.631Z,27.63
2017-07-31T12:53:02.607Z,27.59
2017-07-31T12:54:11.583Z,27.51
2017-07-31T12:55:20.548Z,27.55
2017-07-31T12:56:29.604Z,27.55
2017-07-31T12:57:39.048Z,27.41
2017-07-31T12:58:48.189Z,27.4
2017-07-31T12:59:57.282Z,27.36
2017-07-31T13:01:06.418Z,27.44
2017-07-31T13:02:15.866Z,27.4
2017-07-31T13:03:24.978Z,27.39
2017-07-31T13:04:34.338Z,27.41
2017-07-31T13:05:43.714Z,27.54
2017-07-31T13:06:52.678Z,27.59
2017-07-31T13:08:01.645Z,27.47
2017-07-31T13:09:10.616Z,27.69
2017-07-31T13:10:20.008Z,27.63
2017-07-31T13:11:28.967Z,27.72
2017-07-31T13:12:37.926Z,27.82
2017-07-31T13:13:46.936Z,27.77
2017-07-31T13:14:56.018Z,27.75
2017-07-31T13:16:05.311Z,27.82
2017-07-31T13:17:14.295Z,27.85
2017-07-31T13:18:23.258Z,27.92
2017-07-31T13:19:32.227Z,27.87
2017-07-31T13:20:41.361Z,27.87
2017-07-31T13:21:50.436Z,27.9
2017-07-31T13:22:59.397Z,27.9
2017-07-31T13:24:08.361Z,27.84
2017-07-31T13:25:17.325Z,27.82
2017-07-31T13:26:26.287Z,27.92
2017-07-31T13:27:35.247Z,27.9
2017-07-31T13:28:44.215Z,27.81
2017-07-31T13:29:53.239Z,27.84
2017-07-31T13:31:02.580Z,27.82
2017-07-31T13:32:11.888Z,27.81
2017-07-31T13:33:20.855Z,27.9
2017-07-31T13:34:29.821Z,27.9
2017-07-31T13:35:38.803Z,28
2017-07-31T13:36:47.835Z,27.88
2017-07-31T13:37:56.934Z,27.84
2017-07-31T13:39:06.221Z,27.88
2017-07-31T13:40:15.186Z,27.93
2017-07-31T13:41:24.155Z,27.96
2017-07-31T13:42:33.122Z,27.99
2017-07-31T13:43:42.083Z,27.88
2017-07-31T13:44:51.050Z,27.97
2017-07-31T13:46:00.003Z,27.94
2017-07-31T13:47:08.965Z,27.94
2017-07-31T13:48:17.938Z,27.96
2017-07-31T13:49:26.895Z,28
2017-07-31T13:50:36.174Z,27.99
2017-07-31T13:51:45.150Z,28.04
2017-07-31T13:52:54.110Z,28.04
2017-07-31T13:54:03.074Z,27.96
2017-07-31T13:55:12.034Z,27.93
2017-07-31T13:56:21.002Z,27.92
2017-07-31T13:57:29.970Z,27.84
2017-07-31T13:58:38.941Z,27.87
2017-07-31T13:59:47.908Z,27.84
2017-07-31T14:00:56.873Z,27.82
2017-07-31T14:02:05.830Z,27.88
2017-07-31T14:03:14.790Z,27.79
2017-07-31T14:04:23.754Z,27.75
2017-07-31T14:05:32.724Z,27.72
2017-07-31T14:06:41.691Z,27.74
2017-07-31T14:07:50.661Z,27.74
2017-07-31T14:08:59.956Z,27.69
2017-07-31T14:10:08.922Z,27.78
2017-07-31T14:11:17.882Z,27.79
2017-07-31T14:12:27.180Z,27.85
2017-07-31T14:13:36.479Z,27.79
2017-07-31T14:14:45.445Z,27.84
2017-07-31T14:15:54.404Z,27.87
2017-07-31T14:17:03.363Z,27.9
2017-07-31T14:18:12.338Z,27.85
2017-07-31T14:19:21.307Z,27.87
2017-07-31T14:20:30.623Z,27.92
2017-07-31T14:21:39.902Z,27.97
2017-07-31T14:22:48.871Z,27.92
2017-07-31T14:23:57.840Z,27.87
2017-07-31T14:25:06.798Z,27.88
2017-07-31T14:26:15.773Z,27.82
2017-07-31T14:27:25.065Z,27.88
2017-07-31T14:28:34.022Z,27.9
2017-07-31T14:29:42.980Z,27.88
2017-07-31T14:30:51.942Z,27.88
2017-07-31T14:32:00.904Z,27.79
2017-07-31T14:33:09.867Z,27.9
2017-07-31T14:34:18.827Z,27.88
2017-07-31T14:35:27.796Z,27.81
2017-07-31T14:36:36.762Z,27.85
2017-07-31T14:37:45.725Z,27.84
2017-07-31T14:38:54.682Z,27.78
2017-07-31T14:40:03.645Z,27.9
2017-07-31T14:41:12.611Z,27.79
2017-07-31T14:42:21.575Z,27.92
2017-07-31T14:43:30.536Z,27.79
2017-07-31T14:44:39.499Z,27.88
2017-07-31T14:45:48.478Z,27.88
2017-07-31T14:46:57.440Z,27.75
2017-07-31T14:48:06.400Z,27.79
2017-07-31T14:49:15.367Z,27.9
2017-07-31T14:50:24.340Z,27.84
2017-07-31T14:51:33.304Z,27.81
2017-07-31T14:52:42.594Z,27.82
2017-07-31T14:53:51.885Z,27.87